Terminal Aerodrome Forecast
Issued by NWS

Home | Current Version | Previous Version | Text Only | Print | Product List | Glossary On
Versions: 1 2 3 4 5 6 7 8 9 10 11 12 13 14
547
FTUS45 KTFX 241730
TAFBZN
TAF
KBZN 241730Z 2418/2518 VRB06KT P6SM VCSH SCT012 OVC040
      TEMPO 2418/2422 BKN012
     FM242200 VRB06KT P6SM -SHRA BKN020 OVC035
     FM250400 VRB05KT P6SM OVC040=

USA.gov is the U.S. government's official web portal to all federal, state and local government web resources and services.